createdAt,value
2018-11-10T00:00:18.659Z,21.53
2018-11-10T00:02:49.711Z,14.47
2018-11-10T00:05:19.590Z,13.47
2018-11-10T00:07:49.438Z,13.70
2018-11-10T00:10:19.439Z,13.73
2018-11-10T00:12:49.176Z,14.87
2018-11-10T00:15:18.386Z,14.13
2018-11-10T00:17:47.586Z,15.03
2018-11-10T00:20:16.779Z,12.73
2018-11-10T00:22:45.982Z,14.20
2018-11-10T00:25:15.663Z,19.93
2018-11-10T00:27:45.999Z,15.17
2018-11-10T00:30:17.358Z,14.15
2018-11-10T00:32:46.973Z,28.13
2018-11-10T00:35:16.183Z,22.73
2018-11-10T00:37:45.388Z,29.50
2018-11-10T00:40:15.638Z,21.70
2018-11-10T00:42:45.100Z,18.07
2018-11-10T00:45:14.393Z,57.03
2018-11-10T00:47:43.599Z,28.10
2018-11-10T00:50:12.808Z,37.05
2018-11-10T00:52:42.013Z,15.23
2018-11-10T00:55:11.207Z,35.17
2018-11-10T00:57:40.410Z,22.43
2018-11-10T01:00:11.360Z,17.27
2018-11-10T01:02:41.173Z,17.23
2018-11-10T01:05:10.375Z,39.67
2018-11-10T01:07:39.991Z,22.33
2018-11-10T01:10:12.047Z,17.17
2018-11-10T01:12:41.325Z,44.53
2018-11-10T01:15:13.385Z,36.13
2018-11-10T01:17:43.091Z,71.33
2018-11-10T01:20:12.939Z,48.83
2018-11-10T01:22:42.123Z,38.37
2018-11-10T01:25:11.976Z,28.00
2018-11-10T01:27:41.206Z,62.67
2018-11-10T01:30:13.902Z,53.40
2018-11-10T01:32:44.074Z,44.00
2018-11-10T01:35:13.519Z,190.40
2018-11-10T01:37:42.747Z,119.07
2018-11-10T01:40:13.346Z,55.80
2018-11-10T01:42:43.314Z,50.93
2018-11-10T01:45:14.702Z,24.73
2018-11-10T01:47:44.342Z,21.97
2018-11-10T01:50:13.595Z,65.80
2018-11-10T01:52:43.939Z,38.45
2018-11-10T01:55:13.341Z,91.57
2018-11-10T01:57:43.362Z,54.23
2018-11-10T02:00:16.667Z,54.75
2018-11-10T02:02:46.470Z,204.57
2018-11-10T02:05:16.233Z,88.17
2018-11-10T02:07:45.590Z,134.80
2018-11-10T02:10:14.870Z,89.00
2018-11-10T02:12:44.080Z,75.70
2018-11-10T02:15:15.238Z,87.77
2018-11-10T02:17:44.443Z,38.60
2018-11-10T02:20:14.515Z,87.10
2018-11-10T02:22:43.802Z,63.03
2018-11-10T02:25:13.355Z,66.83
2018-11-10T02:27:42.546Z,93.60
2018-11-10T02:30:12.227Z,46.18
2018-11-10T02:32:42.898Z,86.50
2018-11-10T02:35:12.331Z,89.30
2018-11-10T02:37:41.767Z,114.52
2018-11-10T02:40:13.066Z,45.93
2018-11-10T02:42:42.302Z,132.75
2018-11-10T02:45:12.826Z,81.63
2018-11-10T02:47:42.449Z,69.83
2018-11-10T02:50:11.656Z,45.10
2018-11-10T02:52:40.913Z,88.17
2018-11-10T02:55:10.889Z,63.93
2018-11-10T02:57:40.286Z,82.60
2018-11-10T03:00:11.030Z,107.67
2018-11-10T03:02:40.423Z,82.23
2018-11-10T03:05:10.099Z,75.67
2018-11-10T03:07:39.855Z,28.92
2018-11-10T03:10:10.375Z,80.10
2018-11-10T03:12:40.494Z,50.17
2018-11-10T03:15:10.710Z,26.30
2018-11-10T03:17:39.953Z,16.75
2018-11-10T03:20:12.397Z,23.95
2018-11-10T03:22:41.867Z,26.77
2018-11-10T03:25:11.514Z,21.83
2018-11-10T03:27:40.926Z,77.10
2018-11-10T03:30:10.435Z,65.43
2018-11-10T03:32:39.639Z,110.68
2018-11-10T03:35:09.558Z,40.85
2018-11-10T03:37:40.602Z,168.00
2018-11-10T03:40:11.489Z,101.80
2018-11-10T03:42:41.046Z,182.80
2018-11-10T03:45:11.662Z,156.12
2018-11-10T03:50:41.067Z,51.40
2018-11-10T03:53:10.348Z,78.23
2018-11-10T03:55:39.547Z,21.90
2018-11-10T03:58:08.772Z,81.63
2018-11-10T04:00:37.978Z,25.47
2018-11-10T04:03:07.182Z,46.57
2018-11-10T04:05:36.392Z,125.93
2018-11-10T04:08:05.947Z,68.75
2018-11-10T04:10:35.147Z,61.97
2018-11-10T04:13:04.370Z,99.00
2018-11-10T04:15:33.589Z,90.67
2018-11-10T04:18:02.799Z,110.97
2018-11-10T04:20:32.002Z,151.77
2018-11-10T04:23:01.215Z,109.40
2018-11-10T04:25:30.430Z,93.57
2018-11-10T04:27:59.636Z,64.30
2018-11-10T04:30:28.861Z,84.93
2018-11-10T04:32:58.091Z,83.97
2018-11-10T04:35:27.306Z,38.73
2018-11-10T04:37:56.595Z,49.87
2018-11-10T04:40:25.815Z,34.30
2018-11-10T04:42:54.988Z,38.83
2018-11-10T04:45:24.198Z,45.73
2018-11-10T04:47:53.408Z,67.17
2018-11-10T04:50:22.610Z,41.40
2018-11-10T04:52:51.807Z,58.03
2018-11-10T04:55:21.015Z,57.90
2018-11-10T04:57:50.211Z,61.27
2018-11-10T05:00:19.415Z,56.73
2018-11-10T05:02:48.615Z,42.90
2018-11-10T05:05:17.815Z,34.43
2018-11-10T05:07:47.023Z,48.57
2018-11-10T05:10:16.214Z,31.83
2018-11-10T05:12:45.426Z,21.90
2018-11-10T05:15:14.794Z,17.23
2018-11-10T05:17:43.993Z,30.50
2018-11-10T05:20:13.486Z,29.40
2018-11-10T05:22:42.667Z,22.00
2018-11-10T05:25:11.991Z,19.73
2018-11-10T05:27:41.417Z,18.47
2018-11-10T05:30:11.111Z,14.70
2018-11-10T05:32:40.367Z,16.70
2018-11-10T05:35:09.726Z,14.73
2018-11-10T05:37:38.983Z,13.17
2018-11-10T05:40:09.915Z,12.47
2018-11-10T05:42:39.210Z,14.85
2018-11-10T05:45:08.584Z,10.27
2018-11-10T05:47:37.862Z,9.70
2018-11-10T05:50:07.662Z,16.87
2018-11-10T05:52:36.855Z,15.17
2018-11-10T05:55:07.126Z,17.43
2018-11-10T05:57:36.303Z,15.00
2018-11-10T06:00:08.538Z,19.37
2018-11-10T06:02:37.908Z,14.87
2018-11-10T06:05:07.085Z,13.13
2018-11-10T06:07:36.286Z,12.60
2018-11-10T06:10:06.917Z,13.70
2018-11-10T06:12:35.986Z,13.80
2018-11-10T06:15:06.203Z,15.07
2018-11-10T06:17:35.403Z,21.20
2018-11-10T06:20:05.510Z,13.53
2018-11-10T06:22:34.690Z,12.67
2018-11-10T06:25:03.904Z,12.23
2018-11-10T06:27:33.147Z,68.27
2018-11-10T06:30:02.385Z,24.60
2018-11-10T06:35:15.375Z,64.37
2018-11-10T06:37:44.586Z,34.50
2018-11-10T06:40:14.549Z,62.57
2018-11-10T06:42:44.270Z,42.43
2018-11-10T06:45:14.503Z,70.50
2018-11-10T06:47:43.697Z,108.73
2018-11-10T06:50:13.123Z,88.43
2018-11-10T06:52:42.359Z,144.15
2018-11-10T06:55:11.920Z,126.33
2018-11-10T06:57:41.138Z,178.77
2018-11-10T07:00:12.860Z,114.67
2018-11-10T07:02:42.480Z,71.80
2018-11-10T07:05:12.320Z,58.53
2018-11-10T07:07:41.712Z,72.50
2018-11-10T07:10:11.567Z,69.35
2018-11-10T07:12:40.775Z,82.57
2018-11-10T07:15:10.369Z,43.50
2018-11-10T07:17:39.636Z,33.83
2018-11-10T07:20:08.843Z,73.90
2018-11-10T07:22:38.051Z,83.33
2018-11-10T07:25:07.619Z,47.57
2018-11-10T07:27:36.762Z,56.45
2018-11-10T07:30:09.153Z,49.05
2018-11-10T07:32:38.365Z,56.73
2018-11-10T07:35:08.543Z,39.67
2018-11-10T07:37:37.854Z,22.97
2018-11-10T07:40:09.499Z,49.97
2018-11-10T07:42:38.714Z,17.73
2018-11-10T07:45:09.822Z,10.73
2018-11-10T07:47:39.023Z,9.67
2018-11-10T07:50:08.994Z,8.10
2018-11-10T07:52:38.617Z,13.23
2018-11-10T07:55:09.025Z,7.30
2018-11-10T07:57:38.221Z,4.90
2018-11-10T08:00:12.807Z,7.90
2018-11-10T08:02:42.285Z,5.20
2018-11-10T08:05:12.185Z,6.93
2018-11-10T08:07:42.150Z,4.93
2018-11-10T08:10:12.035Z,4.30
2018-11-10T08:12:41.223Z,5.40
2018-11-10T08:15:13.635Z,4.27
2018-11-10T08:17:42.853Z,3.83
2018-11-10T08:20:12.631Z,4.10
2018-11-10T08:22:41.840Z,3.53
2018-11-10T08:25:13.094Z,3.60
2018-11-10T08:27:42.466Z,3.40
2018-11-10T08:30:13.109Z,3.40
2018-11-10T08:32:42.725Z,3.10
2018-11-10T08:35:12.845Z,2.90
2018-11-10T08:37:42.069Z,2.77
2018-11-10T08:40:15.856Z,3.20
2018-11-10T08:42:45.050Z,3.10
2018-11-10T08:45:14.984Z,3.10
2018-11-10T08:47:44.807Z,3.10
2018-11-10T08:50:15.082Z,2.80
2018-11-10T08:52:44.298Z,3.07
2018-11-10T08:55:14.054Z,3.10
2018-11-10T08:57:43.720Z,3.27
2018-11-10T09:00:13.151Z,3.30
2018-11-10T09:02:42.348Z,3.60
2018-11-10T09:05:12.319Z,6.90
2018-11-10T09:07:41.720Z,4.30
2018-11-10T09:10:12.605Z,3.80
2018-11-10T09:12:42.016Z,3.87
2018-11-10T09:15:13.311Z,4.50
2018-11-10T09:17:42.644Z,3.53
2018-11-10T09:20:13.423Z,3.70
2018-11-10T09:22:43.067Z,3.20
2018-11-10T09:25:13.633Z,3.40
2018-11-10T09:27:42.869Z,3.23
2018-11-10T09:30:13.464Z,3.23
2018-11-10T09:32:42.930Z,3.13
2018-11-10T09:35:13.082Z,3.00
2018-11-10T09:37:42.304Z,2.63
2018-11-10T09:40:14.468Z,2.80
2018-11-10T09:42:43.932Z,2.63
2018-11-10T09:45:14.115Z,4.10
2018-11-10T09:47:43.344Z,2.65
2018-11-10T09:50:15.304Z,2.47
2018-11-10T09:52:44.886Z,2.60
2018-11-10T09:55:14.790Z,2.70
2018-11-10T09:57:43.998Z,2.60
2018-11-10T10:00:16.034Z,3.00
2018-11-10T10:02:45.533Z,3.73
2018-11-10T10:05:14.558Z,2.90
2018-11-10T10:07:44.973Z,2.83
2018-11-10T10:10:16.813Z,3.93
2018-11-10T10:12:46.310Z,2.90
2018-11-10T10:15:16.755Z,2.90
2018-11-10T10:17:46.374Z,2.70
2018-11-10T10:20:17.419Z,3.07
2018-11-10T10:22:47.506Z,3.13
2018-11-10T10:25:17.438Z,2.33
2018-11-10T10:27:47.514Z,3.03
2018-11-10T10:30:18.367Z,3.93
2018-11-10T10:32:48.538Z,3.03
2018-11-10T10:35:17.933Z,2.30
2018-11-10T10:37:47.763Z,2.33
2018-11-10T10:40:18.548Z,2.40
2018-11-10T10:42:49.672Z,4.50
2018-11-10T10:45:21.912Z,2.53
2018-11-10T10:47:51.113Z,2.30
2018-11-10T10:50:21.391Z,2.50
2018-11-10T10:52:50.592Z,2.40
2018-11-10T10:55:20.327Z,2.30
2018-11-10T10:57:50.309Z,2.30
2018-11-10T11:00:24.894Z,2.33
2018-11-10T11:02:56.166Z,3.90
2018-11-10T11:05:30.658Z,2.57
2018-11-10T11:07:59.872Z,3.27
2018-11-10T11:10:29.110Z,2.80
2018-11-10T11:12:58.310Z,2.60
2018-11-10T11:15:27.625Z,2.70
2018-11-10T11:17:56.734Z,2.57
2018-11-10T11:20:25.946Z,3.22
2018-11-10T11:22:55.207Z,2.77
2018-11-10T11:25:24.437Z,2.83
2018-11-10T11:27:53.731Z,3.23
2018-11-10T11:30:23.049Z,3.05
2018-11-10T11:32:52.322Z,2.75
2018-11-10T11:35:21.580Z,2.92
2018-11-10T11:37:50.796Z,3.23
2018-11-10T11:40:19.911Z,3.17
2018-11-10T11:42:49.113Z,3.02
2018-11-10T11:45:18.304Z,2.95
2018-11-10T11:47:47.487Z,3.22
2018-11-10T11:50:17.084Z,3.30
2018-11-10T11:52:46.634Z,3.50
2018-11-10T11:55:16.149Z,3.80
2018-11-10T11:57:45.405Z,3.10
2018-11-10T12:00:15.879Z,3.20
2018-11-10T12:02:45.989Z,3.50
2018-11-10T12:05:17.199Z,3.73
2018-11-10T12:07:46.922Z,4.50
2018-11-10T12:10:16.939Z,4.30
2018-11-10T12:12:46.399Z,3.70
2018-11-10T12:15:16.674Z,3.77
2018-11-10T12:17:45.800Z,3.20
2018-11-10T12:20:16.027Z,3.20
2018-11-10T12:22:45.240Z,4.45
2018-11-10T12:25:14.914Z,3.33
2018-11-10T12:27:44.614Z,4.20
2018-11-10T12:30:13.922Z,3.37
2018-11-10T12:32:43.993Z,6.32
2018-11-10T12:35:14.098Z,5.20
2018-11-10T12:37:43.535Z,4.77
2018-11-10T12:40:13.711Z,3.80
2018-11-10T12:42:43.194Z,3.73
2018-11-10T12:45:13.421Z,5.05
2018-11-10T12:47:43.177Z,4.53
2018-11-10T12:50:13.580Z,6.67
2018-11-10T12:52:43.644Z,5.10
2018-11-10T12:55:14.207Z,5.40
2018-11-10T12:57:44.055Z,6.20
2018-11-10T13:00:14.588Z,6.70
2018-11-10T13:02:44.141Z,6.10
2018-11-10T13:05:13.681Z,5.80
2018-11-10T13:07:44.522Z,5.17
2018-11-10T13:10:13.710Z,5.33
2018-11-10T13:12:43.842Z,6.88
2018-11-10T13:15:13.065Z,5.95
2018-11-10T13:17:42.297Z,6.53
2018-11-10T13:20:13.463Z,7.23
2018-11-10T13:22:42.703Z,8.27
2018-11-10T13:25:12.799Z,7.47
2018-11-10T13:27:42.033Z,7.03
2018-11-10T13:30:13.124Z,6.62
2018-11-10T13:32:42.315Z,7.93
2018-11-10T13:35:11.835Z,8.07
2018-11-10T13:37:41.027Z,8.48
2018-11-10T13:40:10.694Z,8.93
2018-11-10T13:42:39.884Z,9.63
2018-11-10T13:45:11.234Z,8.17
2018-11-10T13:47:40.424Z,9.77
2018-11-10T13:50:11.091Z,11.15
2018-11-10T13:52:41.482Z,9.90
2018-11-10T13:55:10.594Z,9.25
2018-11-10T13:57:40.051Z,14.33
2018-11-10T14:00:13.410Z,10.78
2018-11-10T14:02:42.802Z,12.03
2018-11-10T14:05:12.574Z,12.47
2018-11-10T14:07:41.839Z,12.60
2018-11-10T14:10:13.459Z,13.27
2018-11-10T14:12:43.568Z,15.43
2018-11-10T14:15:12.740Z,12.57
2018-11-10T14:17:42.563Z,11.57
2018-11-10T14:20:13.799Z,13.53
2018-11-10T14:22:43.169Z,14.33
2018-11-10T14:25:13.522Z,13.20
2018-11-10T14:27:43.407Z,14.30
2018-11-10T14:30:14.466Z,12.97
2018-11-10T14:32:44.122Z,17.60
2018-11-10T14:35:13.642Z,14.87
2018-11-10T14:37:42.860Z,14.17
2018-11-10T14:40:13.523Z,16.17
2018-11-10T14:42:43.273Z,14.00
2018-11-10T14:45:13.754Z,15.90
2018-11-10T14:47:43.508Z,12.77
2018-11-10T14:50:13.559Z,13.83
2018-11-10T14:52:43.167Z,16.20
2018-11-10T14:55:12.882Z,14.03
2018-11-10T14:57:42.419Z,17.55
2018-11-10T15:00:16.253Z,15.47
2018-11-10T15:02:45.463Z,19.53
2018-11-10T15:05:14.866Z,15.30
2018-11-10T15:07:44.538Z,15.53
2018-11-10T15:10:14.990Z,14.23
2018-11-10T15:12:44.802Z,15.10
2018-11-10T15:15:14.963Z,14.03
2018-11-10T15:17:44.501Z,15.60
2018-11-10T15:20:15.023Z,18.17
2018-11-10T15:22:44.316Z,15.00
2018-11-10T15:25:14.926Z,19.30
2018-11-10T15:27:44.056Z,15.32
2018-11-10T15:30:14.857Z,23.70
2018-11-10T15:32:44.984Z,15.47
2018-11-10T15:35:15.354Z,15.03
2018-11-10T15:37:45.955Z,13.78
2018-11-10T15:40:15.805Z,14.87
2018-11-10T15:42:45.056Z,16.27
2018-11-10T15:45:15.071Z,15.03
2018-11-10T15:47:44.575Z,14.40
2018-11-10T15:50:15.037Z,14.83
2018-11-10T15:52:44.218Z,17.03
2018-11-10T15:55:13.895Z,13.30
2018-11-10T15:57:43.518Z,14.38
2018-11-10T16:00:15.314Z,19.40
2018-11-10T16:02:44.633Z,13.70
2018-11-10T16:05:14.476Z,15.63
2018-11-10T16:07:43.671Z,15.07
2018-11-10T16:10:13.016Z,14.77
2018-11-10T16:12:42.505Z,14.13
2018-11-10T16:15:14.039Z,12.90
2018-11-10T16:17:43.370Z,25.10
2018-11-10T16:20:17.075Z,52.77
2018-11-10T16:22:47.723Z,42.30
2018-11-10T16:25:17.363Z,39.07
2018-11-10T16:27:46.866Z,25.27
2018-11-10T16:30:17.275Z,20.17
2018-11-10T16:32:46.872Z,18.90
2018-11-10T16:35:16.130Z,21.62
2018-11-10T16:37:45.343Z,21.53
2018-11-10T16:40:16.453Z,19.63
2018-11-10T16:42:46.543Z,20.02
2018-11-10T16:45:16.482Z,18.27
2018-11-10T16:47:45.700Z,17.57
2018-11-10T16:50:14.970Z,16.93
2018-11-10T16:52:44.886Z,16.93
2018-11-10T16:55:14.181Z,16.77
2018-11-10T16:57:43.310Z,17.67
2018-11-10T17:00:15.771Z,19.57
2018-11-10T17:02:45.017Z,17.67
2018-11-10T17:05:14.242Z,16.87
2018-11-10T17:07:43.468Z,18.10
2018-11-10T17:10:14.057Z,14.97
2018-11-10T17:12:43.363Z,15.07
2018-11-10T17:15:12.642Z,15.73
2018-11-10T17:17:41.860Z,15.37
2018-11-10T17:20:13.609Z,17.48
2018-11-10T17:22:42.845Z,17.77
2018-11-10T17:25:12.651Z,17.53
2018-11-10T17:27:42.334Z,22.50
2018-11-10T17:30:19.223Z,24.90
2018-11-10T17:32:48.292Z,33.47
2018-11-10T17:35:17.619Z,29.87
2018-11-10T17:37:46.874Z,21.83
2018-11-10T17:40:16.486Z,23.63
2018-11-10T17:42:45.630Z,23.73
2018-11-10T17:45:16.234Z,19.53
2018-11-10T17:47:45.658Z,25.27
2018-11-10T17:50:16.312Z,26.20
2018-11-10T17:52:45.607Z,18.97
2018-11-10T17:55:15.825Z,15.27
2018-11-10T17:57:46.791Z,23.95
2018-11-10T18:00:15.990Z,18.67
2018-11-10T18:02:45.228Z,19.07
2018-11-10T18:05:15.479Z,19.42
2018-11-10T18:07:44.910Z,18.90
2018-11-10T18:10:16.863Z,23.27
2018-11-10T18:12:46.516Z,26.73
2018-11-10T18:15:16.006Z,24.23
2018-11-10T18:17:45.540Z,23.67
2018-11-10T18:20:16.032Z,22.67
2018-11-10T18:22:45.554Z,22.70
2018-11-10T18:25:14.906Z,20.67
2018-11-10T18:27:44.117Z,19.03
2018-11-10T18:30:14.470Z,20.03
2018-11-10T18:32:44.265Z,20.02
2018-11-10T18:35:14.895Z,20.83
2018-11-10T18:37:44.175Z,16.77
2018-11-10T18:40:13.401Z,19.80
2018-11-10T18:42:42.625Z,20.70
2018-11-10T18:45:12.535Z,24.43
2018-11-10T18:47:42.191Z,24.23
2018-11-10T18:50:14.016Z,20.77
2018-11-10T18:52:43.418Z,17.30
2018-11-10T18:55:13.340Z,24.63
2018-11-10T18:57:42.859Z,31.30
2018-11-10T19:00:14.068Z,32.27
2018-11-10T19:02:43.434Z,27.27
2018-11-10T19:05:13.935Z,32.67
2018-11-10T19:07:43.231Z,27.15
2018-11-10T19:10:13.770Z,34.87
2018-11-10T19:12:43.341Z,34.33
2018-11-10T19:15:16.636Z,30.03
2018-11-10T19:17:45.830Z,32.33
2018-11-10T19:20:15.624Z,28.83
2018-11-10T19:22:44.842Z,29.53
2018-11-10T19:25:14.664Z,40.83
2018-11-10T19:27:44.122Z,43.13
2018-11-10T19:30:15.106Z,38.27
2018-11-10T19:32:44.878Z,37.40
2018-11-10T19:35:14.566Z,40.28
2018-11-10T19:37:43.995Z,35.00
2018-11-10T19:40:13.293Z,37.47
2018-11-10T19:42:44.745Z,40.47
2018-11-10T19:45:14.106Z,48.70
2018-11-10T19:47:44.325Z,75.47
2018-11-10T19:50:14.278Z,79.00
2018-11-10T19:52:43.763Z,111.17
2018-11-10T19:55:15.158Z,134.20
2018-11-10T19:57:44.518Z,290.80
2018-11-10T20:00:18.546Z,100.53
2018-11-10T20:02:47.968Z,165.63
2018-11-10T20:05:17.610Z,167.87
2018-11-10T20:07:46.938Z,92.50
2018-11-10T20:10:16.222Z,153.53
2018-11-10T20:12:45.846Z,171.83
2018-11-10T20:15:15.819Z,168.83
2018-11-10T20:17:45.360Z,178.10
2018-11-10T20:20:15.846Z,354.80
2018-11-10T20:22:45.267Z,443.30
2018-11-10T20:25:15.811Z,288.23
2018-11-10T20:27:44.994Z,358.77
2018-11-10T20:30:16.934Z,559.73
2018-11-10T20:32:46.289Z,313.77
2018-11-10T20:35:15.483Z,212.87
2018-11-10T20:37:45.258Z,217.03
2018-11-10T20:40:15.209Z,176.57
2018-11-10T20:42:44.481Z,224.22
2018-11-10T20:45:17.037Z,234.73
2018-11-10T20:47:46.249Z,256.83
2018-11-10T20:50:15.788Z,190.83
2018-11-10T20:52:45.004Z,121.40
2018-11-10T20:55:14.558Z,126.67
2018-11-10T20:57:43.751Z,232.73
2018-11-10T21:00:14.965Z,198.43
2018-11-10T21:02:44.532Z,144.82
2018-11-10T21:05:14.412Z,202.50
2018-11-10T21:07:43.645Z,176.60
2018-11-10T21:10:14.861Z,135.80
2018-11-10T21:12:44.925Z,137.37
2018-11-10T21:15:14.534Z,95.53
2018-11-10T21:17:43.863Z,147.63
2018-11-10T21:20:13.471Z,122.37
2018-11-10T21:22:42.995Z,202.63
2018-11-10T21:25:14.143Z,111.57
2018-11-10T21:27:43.578Z,75.90
2018-11-10T21:30:14.506Z,99.83
2018-11-10T21:32:45.363Z,187.30
2018-11-10T21:35:14.685Z,142.53
2018-11-10T21:37:43.793Z,95.17
2018-11-10T21:40:14.545Z,118.90
2018-11-10T21:42:44.120Z,172.13
2018-11-10T21:45:14.204Z,67.40
2018-11-10T21:47:43.606Z,53.73
2018-11-10T21:50:14.971Z,74.70
2018-11-10T21:52:44.792Z,95.80
2018-11-10T21:55:16.179Z,77.00
2018-11-10T21:57:45.894Z,91.50
2018-11-10T22:00:17.303Z,121.23
2018-11-10T22:02:46.920Z,77.87
2018-11-10T22:05:16.034Z,100.93
2018-11-10T22:07:45.299Z,153.47
2018-11-10T22:10:16.658Z,86.27
2018-11-10T22:12:46.175Z,133.87
2018-11-10T22:15:17.699Z,227.37
2018-11-10T22:17:47.078Z,97.33
2018-11-10T22:20:18.686Z,77.03
2018-11-10T22:22:47.944Z,119.10
2018-11-10T22:25:47.375Z,92.07
2018-11-10T22:28:17.559Z,64.03
2018-11-10T22:30:46.813Z,150.83
2018-11-10T22:33:16.020Z,60.05
2018-11-10T22:35:45.298Z,58.60
2018-11-10T22:38:14.507Z,65.80
2018-11-10T22:40:43.725Z,53.57
2018-11-10T22:43:12.919Z,59.10
2018-11-10T22:45:42.119Z,54.97
2018-11-10T22:48:11.317Z,51.63
2018-11-10T22:50:40.530Z,37.43
2018-11-10T22:53:09.717Z,39.87
2018-11-10T22:55:38.923Z,34.07
2018-11-10T22:58:08.154Z,33.13
2018-11-10T23:00:41.760Z,82.03
2018-11-10T23:03:11.015Z,54.27
2018-11-10T23:05:40.490Z,56.15
2018-11-10T23:08:09.699Z,38.33
2018-11-10T23:10:38.913Z,33.50
2018-11-10T23:13:08.128Z,35.60
2018-11-10T23:15:37.319Z,49.93
2018-11-10T23:18:06.517Z,45.33
2018-11-10T23:20:35.739Z,74.23
2018-11-10T23:23:05.627Z,71.57
2018-11-10T23:25:34.855Z,54.85
2018-11-10T23:28:04.070Z,75.20
2018-11-10T23:30:33.284Z,53.30
2018-11-10T23:33:02.473Z,37.13
2018-11-10T23:35:31.688Z,38.90
2018-11-10T23:38:00.952Z,38.92
2018-11-10T23:40:30.171Z,41.40
2018-11-10T23:42:59.366Z,46.27
2018-11-10T23:45:28.587Z,32.63
2018-11-10T23:47:57.770Z,41.40
2018-11-10T23:50:26.974Z,37.83
2018-11-10T23:52:56.193Z,43.80
2018-11-10T23:55:25.411Z,39.83
2018-11-10T23:57:54.626Z,37.37
